createdAt,value
2024-04-30T00:00:41.668Z,3.17
2024-04-30T00:03:07.979Z,3.12
2024-04-30T00:05:34.309Z,2.87
2024-04-30T00:08:00.787Z,2.90
2024-04-30T00:10:27.106Z,2.90
2024-04-30T00:12:53.363Z,2.70
2024-04-30T00:15:19.643Z,2.60
2024-04-30T00:17:46.082Z,2.60
2024-04-30T00:20:12.655Z,2.55
2024-04-30T00:22:39.103Z,2.60
2024-04-30T00:25:05.551Z,2.70
2024-04-30T00:27:31.812Z,2.60
2024-04-30T00:29:58.160Z,2.40
2024-04-30T00:32:24.464Z,2.60
2024-04-30T00:34:50.805Z,2.50
2024-04-30T00:37:17.147Z,2.40
2024-04-30T00:39:43.380Z,2.30
2024-04-30T00:42:09.671Z,2.30
2024-04-30T00:44:35.972Z,2.30
2024-04-30T00:47:02.299Z,2.40
2024-04-30T00:49:28.716Z,2.50
2024-04-30T00:51:55.566Z,2.87
2024-04-30T00:54:21.808Z,3.00
2024-04-30T00:56:48.156Z,2.85
2024-04-30T00:59:14.426Z,2.90
2024-04-30T01:01:40.769Z,3.00
2024-04-30T01:04:07.136Z,3.08
2024-04-30T01:06:33.407Z,3.10
2024-04-30T01:08:59.621Z,3.15
2024-04-30T01:11:25.909Z,3.40
2024-04-30T01:13:52.185Z,3.30
2024-04-30T01:16:18.512Z,3.20
2024-04-30T01:18:44.766Z,3.08
2024-04-30T01:21:11.065Z,3.10
2024-04-30T01:23:37.326Z,2.80
2024-04-30T01:26:03.787Z,3.00
2024-04-30T01:28:30.115Z,3.40
2024-04-30T01:30:56.497Z,3.25
2024-04-30T01:33:22.773Z,3.00
2024-04-30T01:35:49.056Z,3.20
2024-04-30T01:38:15.280Z,3.10
2024-04-30T01:40:41.520Z,3.10
2024-04-30T01:43:07.885Z,3.00
2024-04-30T01:45:34.149Z,3.00
2024-04-30T01:48:00.649Z,3.00
2024-04-30T01:50:27.072Z,2.80
2024-04-30T01:52:53.374Z,2.90
2024-04-30T01:55:19.666Z,2.70
2024-04-30T01:57:45.948Z,2.60
2024-04-30T02:00:12.806Z,2.50
2024-04-30T02:02:39.137Z,2.70
2024-04-30T02:05:10.900Z,2.42
2024-04-30T02:07:43.104Z,2.50
2024-04-30T02:10:09.478Z,2.40
2024-04-30T02:12:35.785Z,2.40
2024-04-30T02:15:02.021Z,2.40
2024-04-30T02:17:29.164Z,2.40
2024-04-30T02:19:55.700Z,2.40
2024-04-30T02:22:21.963Z,2.40
2024-04-30T02:24:48.269Z,2.40
2024-04-30T02:27:14.539Z,2.40
2024-04-30T02:29:40.867Z,2.40
2024-04-30T02:32:25.899Z,2.50
2024-04-30T02:34:52.182Z,2.50
2024-04-30T02:37:18.461Z,2.40
2024-04-30T02:39:44.744Z,2.60
2024-04-30T02:42:11.002Z,2.35
2024-04-30T02:44:38.294Z,2.40
2024-04-30T02:47:05.045Z,2.40
2024-04-30T02:49:31.457Z,2.55
2024-04-30T02:51:57.799Z,2.30
2024-04-30T02:54:24.071Z,2.53
2024-04-30T02:56:50.323Z,2.40
2024-04-30T02:59:16.542Z,2.40
2024-04-30T03:01:45.110Z,2.40
2024-04-30T03:04:11.691Z,2.50
2024-04-30T03:06:38.921Z,2.50
2024-04-30T03:09:05.232Z,2.30
2024-04-30T03:11:31.515Z,2.47
2024-04-30T03:13:57.779Z,2.30
2024-04-30T03:16:24.106Z,2.40
2024-04-30T03:18:50.542Z,2.35
2024-04-30T03:21:16.839Z,2.30
2024-04-30T03:23:43.101Z,2.50
2024-04-30T03:26:09.356Z,2.50
2024-04-30T03:28:35.712Z,2.90
2024-04-30T03:31:05.639Z,2.42
2024-04-30T03:33:34.772Z,2.30
2024-04-30T03:36:01.135Z,2.60
2024-04-30T03:38:27.462Z,2.50
2024-04-30T03:40:53.694Z,2.50
2024-04-30T03:43:19.981Z,2.50
2024-04-30T03:45:46.957Z,2.60
2024-04-30T03:48:13.366Z,2.60
2024-04-30T03:50:39.812Z,2.60
2024-04-30T03:53:06.082Z,2.50
2024-04-30T03:55:32.394Z,2.50
2024-04-30T03:57:59.232Z,2.40
2024-04-30T04:00:25.666Z,2.60
2024-04-30T04:02:51.973Z,2.80
2024-04-30T04:05:18.251Z,2.65
2024-04-30T04:07:44.558Z,2.90
2024-04-30T04:10:10.887Z,3.00
2024-04-30T04:12:56.120Z,3.03
2024-04-30T04:15:22.351Z,2.85
2024-04-30T04:17:48.754Z,2.60
2024-04-30T04:20:15.193Z,2.35
2024-04-30T04:22:41.456Z,2.20
2024-04-30T04:25:07.818Z,2.40
2024-04-30T04:27:34.094Z,2.40
2024-04-30T04:30:00.364Z,2.60
2024-04-30T04:32:26.684Z,2.60
2024-04-30T04:34:53.527Z,2.50
2024-04-30T04:37:19.875Z,2.45
2024-04-30T04:39:46.106Z,2.45
2024-04-30T04:42:12.392Z,2.40
2024-04-30T04:44:38.665Z,2.70
2024-04-30T04:47:04.927Z,2.95
2024-04-30T04:49:31.217Z,3.30
2024-04-30T04:51:57.560Z,3.30
2024-04-30T04:54:23.784Z,3.00
2024-04-30T04:56:50.065Z,2.90
2024-04-30T04:59:16.299Z,3.20
2024-04-30T05:01:42.638Z,3.03
2024-04-30T05:04:09.339Z,3.20
2024-04-30T05:06:40.162Z,3.00
2024-04-30T05:09:06.865Z,2.70
2024-04-30T05:11:33.159Z,2.72
2024-04-30T05:13:59.447Z,2.90
2024-04-30T05:16:25.731Z,2.80
2024-04-30T05:18:52.046Z,2.40
2024-04-30T05:21:18.297Z,2.28
2024-04-30T05:23:44.520Z,2.50
2024-04-30T05:26:11.077Z,2.35
2024-04-30T05:28:38.128Z,2.40
2024-04-30T05:31:04.420Z,2.40
2024-04-30T05:33:30.835Z,2.40
2024-04-30T05:35:58.050Z,2.33
2024-04-30T05:38:25.039Z,2.40
2024-04-30T05:40:51.342Z,2.62
2024-04-30T05:43:18.995Z,2.90
2024-04-30T05:45:45.290Z,3.30
2024-04-30T05:48:11.666Z,3.35
2024-04-30T05:50:37.991Z,3.80
2024-04-30T05:53:04.388Z,4.78
2024-04-30T05:55:31.237Z,5.15
2024-04-30T05:57:57.578Z,4.95
2024-04-30T06:00:24.133Z,4.03
2024-04-30T06:02:50.432Z,3.62
2024-04-30T06:05:16.890Z,3.60
2024-04-30T06:07:43.838Z,3.67
2024-04-30T06:10:10.344Z,3.20
2024-04-30T06:12:36.646Z,3.62
2024-04-30T06:15:03.154Z,5.80
2024-04-30T06:17:29.475Z,5.43
2024-04-30T06:19:55.990Z,4.60
2024-04-30T06:22:22.285Z,4.20
2024-04-30T06:24:48.614Z,4.30
2024-04-30T06:27:14.899Z,4.82
2024-04-30T06:29:41.202Z,4.72
2024-04-30T06:32:07.653Z,7.30
2024-04-30T06:34:34.121Z,5.62
2024-04-30T06:37:00.536Z,6.07
2024-04-30T06:39:27.142Z,5.65
2024-04-30T06:41:53.473Z,4.82
2024-04-30T06:44:20.932Z,7.30
2024-04-30T06:46:47.382Z,6.35
2024-04-30T06:49:13.727Z,8.13
2024-04-30T06:51:40.903Z,8.57
2024-04-30T06:54:07.276Z,8.60
2024-04-30T06:56:33.618Z,8.15
2024-04-30T06:59:01.381Z,9.30
2024-04-30T07:01:27.839Z,9.90
2024-04-30T07:03:54.339Z,11.18
2024-04-30T07:06:21.697Z,11.73
2024-04-30T07:08:48.127Z,12.60
2024-04-30T07:11:14.422Z,12.07
2024-04-30T07:13:40.806Z,7.50
2024-04-30T07:16:07.307Z,5.80
2024-04-30T07:18:33.690Z,6.05
2024-04-30T07:21:01.337Z,7.45
2024-04-30T07:23:27.737Z,6.15
2024-04-30T07:25:54.029Z,7.65
2024-04-30T07:28:20.326Z,7.45
2024-04-30T07:30:46.615Z,8.27
2024-04-30T07:33:14.268Z,6.87
2024-04-30T07:35:40.711Z,4.18
2024-04-30T07:38:07.006Z,3.85
2024-04-30T07:40:33.825Z,4.30
2024-04-30T07:43:00.432Z,5.25
2024-04-30T07:45:26.673Z,3.50
2024-04-30T07:47:53.181Z,3.47
2024-04-30T07:50:19.665Z,4.75
2024-04-30T07:52:46.032Z,9.40
2024-04-30T07:55:12.470Z,9.02
2024-04-30T07:57:38.735Z,4.30
2024-04-30T08:00:11.439Z,9.43
2024-04-30T08:02:37.857Z,9.57
2024-04-30T08:05:04.400Z,15.38
2024-04-30T08:07:30.785Z,18.02
2024-04-30T08:09:57.057Z,16.02
2024-04-30T08:12:23.573Z,10.20
2024-04-30T08:14:49.946Z,7.93
2024-04-30T08:17:16.460Z,6.05
2024-04-30T08:19:42.891Z,8.10
2024-04-30T08:22:09.645Z,10.85
2024-04-30T08:24:36.130Z,7.55
2024-04-30T08:27:02.560Z,4.18
2024-04-30T08:29:28.957Z,6.45
2024-04-30T08:31:55.484Z,7.15
2024-04-30T08:34:22.264Z,11.02
2024-04-30T08:36:48.570Z,11.63
2024-04-30T08:39:14.939Z,7.45
2024-04-30T08:41:41.398Z,6.47
2024-04-30T08:44:10.661Z,7.65
2024-04-30T08:46:37.848Z,8.07
2024-04-30T08:49:05.714Z,8.18
2024-04-30T08:51:32.041Z,8.27
2024-04-30T08:53:58.605Z,9.57
2024-04-30T08:56:25.359Z,10.75
2024-04-30T08:58:51.703Z,9.55
2024-04-30T09:01:18.220Z,9.70
2024-04-30T09:03:44.644Z,9.95
2024-04-30T09:06:11.095Z,10.27
2024-04-30T09:08:37.854Z,9.98
2024-04-30T09:11:04.437Z,10.52
2024-04-30T09:13:34.991Z,14.52
2024-04-30T09:16:01.649Z,18.77
2024-04-30T09:18:28.004Z,18.12
2024-04-30T09:20:57.108Z,19.10
2024-04-30T09:23:30.406Z,18.83
2024-04-30T09:25:57.019Z,20.58
2024-04-30T09:28:23.902Z,22.23
2024-04-30T09:30:57.231Z,23.67
2024-04-30T09:33:24.142Z,24.77
2024-04-30T09:36:08.506Z,24.52
2024-04-30T09:38:37.843Z,23.60
2024-04-30T09:41:04.287Z,23.05
2024-04-30T09:43:30.530Z,23.75
2024-04-30T09:45:57.406Z,22.48
2024-04-30T09:48:27.876Z,19.10
2024-04-30T09:50:54.287Z,17.10
2024-04-30T09:53:20.724Z,20.83
2024-04-30T09:55:47.104Z,23.05
2024-04-30T09:58:14.501Z,21.95
2024-04-30T10:00:40.974Z,20.30
2024-04-30T10:03:08.641Z,22.15
2024-04-30T10:05:36.185Z,21.95
2024-04-30T10:08:02.523Z,22.08
2024-04-30T10:10:29.991Z,25.48
2024-04-30T10:13:18.815Z,22.80
2024-04-30T10:15:45.261Z,28.70
2024-04-30T10:18:22.562Z,29.98
2024-04-30T10:20:48.965Z,26.17
2024-04-30T10:23:25.655Z,22.35
2024-04-30T10:26:02.296Z,25.75
2024-04-30T10:28:28.633Z,24.05
2024-04-30T10:31:08.171Z,18.98
2024-04-30T10:33:35.145Z,19.52
2024-04-30T10:36:01.886Z,20.55
2024-04-30T10:38:28.300Z,9.98
2024-04-30T10:40:55.236Z,8.20
2024-04-30T10:43:22.056Z,7.57
2024-04-30T10:45:48.300Z,7.60
2024-04-30T10:48:15.032Z,7.05
2024-04-30T10:50:41.479Z,6.43
2024-04-30T10:53:08.116Z,6.82
2024-04-30T10:55:34.819Z,6.57
2024-04-30T10:58:14.345Z,6.80
2024-04-30T11:00:44.530Z,7.32
2024-04-30T11:03:13.627Z,6.15
2024-04-30T11:05:40.059Z,6.75
2024-04-30T11:08:06.724Z,7.20
2024-04-30T11:10:37.241Z,7.18
2024-04-30T11:13:04.221Z,7.55
2024-04-30T11:15:30.784Z,7.45
2024-04-30T11:17:57.236Z,7.18
2024-04-30T11:20:24.056Z,7.53
2024-04-30T11:22:50.444Z,9.50
2024-04-30T11:25:16.837Z,8.80
2024-04-30T11:27:43.258Z,9.48
2024-04-30T11:30:10.311Z,7.03
2024-04-30T11:32:36.858Z,9.05
2024-04-30T11:35:03.568Z,10.73
2024-04-30T11:37:30.072Z,10.15
2024-04-30T11:39:56.441Z,7.97
2024-04-30T11:42:27.571Z,6.50
2024-04-30T11:45:02.893Z,6.95
2024-04-30T11:47:29.571Z,8.55
2024-04-30T11:49:55.944Z,8.75
2024-04-30T11:52:22.251Z,8.93
2024-04-30T11:54:49.817Z,10.90
2024-04-30T11:57:16.550Z,7.57
2024-04-30T11:59:42.821Z,5.85
2024-04-30T12:02:09.309Z,5.37
2024-04-30T12:04:35.868Z,5.30
2024-04-30T12:07:02.755Z,4.30
2024-04-30T12:09:29.016Z,4.25
2024-04-30T12:11:55.420Z,5.10
2024-04-30T12:14:21.841Z,6.05
2024-04-30T12:16:49.800Z,6.15
2024-04-30T12:19:16.210Z,7.20
2024-04-30T12:21:45.272Z,8.20
2024-04-30T12:24:11.679Z,6.85
2024-04-30T12:26:38.748Z,5.47
2024-04-30T12:29:05.087Z,5.50
2024-04-30T12:31:31.399Z,5.20
2024-04-30T12:33:58.713Z,6.65
2024-04-30T12:36:25.042Z,6.03
2024-04-30T12:38:51.344Z,6.20
2024-04-30T12:41:17.920Z,6.60
2024-04-30T12:43:44.209Z,7.18
2024-04-30T12:46:10.863Z,7.70
2024-04-30T12:48:37.315Z,6.45
2024-04-30T12:51:04.044Z,5.70
2024-04-30T12:53:30.326Z,6.18
2024-04-30T12:55:56.742Z,6.80
2024-04-30T12:58:26.206Z,6.90
2024-04-30T13:00:54.050Z,6.87
2024-04-30T13:03:20.885Z,5.95
2024-04-30T13:05:48.230Z,6.57
2024-04-30T13:08:14.548Z,5.97
2024-04-30T13:10:41.028Z,5.70
2024-04-30T13:13:07.467Z,5.75
2024-04-30T13:15:34.336Z,5.60
2024-04-30T13:18:00.632Z,5.95
2024-04-30T13:20:26.902Z,5.90
2024-04-30T13:22:53.514Z,5.30
2024-04-30T13:25:19.853Z,5.87
2024-04-30T13:27:46.267Z,6.10
2024-04-30T13:30:13.328Z,7.40
2024-04-30T13:32:40.232Z,6.57
2024-04-30T13:35:06.821Z,6.65
2024-04-30T13:37:34.298Z,6.95
2024-04-30T13:40:00.738Z,7.18
2024-04-30T13:42:27.768Z,8.23
2024-04-30T13:44:54.203Z,6.65
2024-04-30T13:47:20.471Z,6.53
2024-04-30T13:49:47.104Z,5.85
2024-04-30T13:52:14.121Z,6.60
2024-04-30T13:54:40.527Z,5.70
2024-04-30T13:57:07.167Z,6.70
2024-04-30T13:59:33.810Z,6.97
2024-04-30T14:02:00.726Z,5.10
2024-04-30T14:04:27.240Z,4.72
2024-04-30T14:06:53.521Z,5.78
2024-04-30T14:09:19.764Z,4.75
2024-04-30T14:11:46.078Z,6.78
2024-04-30T14:14:12.388Z,6.25
2024-04-30T14:16:43.055Z,6.20
2024-04-30T14:19:10.389Z,6.28
2024-04-30T14:21:36.761Z,6.68
2024-04-30T14:24:03.154Z,6.57
2024-04-30T14:26:29.428Z,6.20
2024-04-30T14:28:55.681Z,5.70
2024-04-30T14:31:23.931Z,6.25
2024-04-30T14:33:50.893Z,5.85
2024-04-30T14:36:36.624Z,5.15
2024-04-30T14:39:09.383Z,6.28
2024-04-30T14:41:35.890Z,5.68
2024-04-30T14:44:02.278Z,6.90
2024-04-30T14:46:29.459Z,5.87
2024-04-30T14:48:55.909Z,6.30
2024-04-30T14:51:22.254Z,6.22
2024-04-30T14:53:48.548Z,5.53
2024-04-30T14:56:15.065Z,6.80
2024-04-30T14:58:41.577Z,5.15
2024-04-30T15:01:08.416Z,6.20
2024-04-30T15:03:34.888Z,6.72
2024-04-30T15:06:01.206Z,7.30
2024-04-30T15:08:27.502Z,6.68
2024-04-30T15:10:53.887Z,6.40
2024-04-30T15:13:20.302Z,7.25
2024-04-30T15:15:46.617Z,7.40
2024-04-30T15:18:13.403Z,6.45
2024-04-30T15:20:42.697Z,5.75
2024-04-30T15:23:09.029Z,5.40
2024-04-30T15:25:35.907Z,4.60
2024-04-30T15:28:02.325Z,3.03
2024-04-30T15:30:28.627Z,2.60
2024-04-30T15:32:55.042Z,2.97
2024-04-30T15:35:24.167Z,2.75
2024-04-30T15:37:50.476Z,2.58
2024-04-30T15:40:16.775Z,2.30
2024-04-30T15:42:45.942Z,2.60
2024-04-30T15:45:12.265Z,2.60
2024-04-30T15:47:39.198Z,2.37
2024-04-30T15:50:05.956Z,2.70
2024-04-30T15:52:32.516Z,2.60
2024-04-30T15:55:00.674Z,2.50
2024-04-30T15:57:27.784Z,2.65
2024-04-30T15:59:54.117Z,2.50
2024-04-30T16:02:20.344Z,2.45
2024-04-30T16:04:47.072Z,2.72
2024-04-30T16:07:13.434Z,2.60
2024-04-30T16:09:40.027Z,2.42
2024-04-30T16:12:06.716Z,2.85
2024-04-30T16:14:33.156Z,2.65
2024-04-30T16:16:59.521Z,2.70
2024-04-30T16:19:25.927Z,2.95
2024-04-30T16:21:55.226Z,2.83
2024-04-30T16:24:22.017Z,2.60
2024-04-30T16:26:48.530Z,2.60
2024-04-30T16:29:14.787Z,2.53
2024-04-30T16:31:41.064Z,2.50
2024-04-30T16:34:08.129Z,2.40
2024-04-30T16:36:34.538Z,2.58
2024-04-30T16:39:00.944Z,2.50
2024-04-30T16:41:27.488Z,2.80
2024-04-30T16:43:53.848Z,2.80
2024-04-30T16:46:20.229Z,2.92
2024-04-30T16:48:51.093Z,3.10
2024-04-30T16:51:17.502Z,3.10
2024-04-30T16:53:43.938Z,3.03
2024-04-30T16:56:10.588Z,3.10
2024-04-30T16:58:37.205Z,3.10
2024-04-30T17:01:03.931Z,3.20
2024-04-30T17:03:30.610Z,4.05
2024-04-30T17:05:57.236Z,3.80
2024-04-30T17:08:23.746Z,3.72
2024-04-30T17:10:50.133Z,3.22
2024-04-30T17:13:16.569Z,3.20
2024-04-30T17:15:43.224Z,3.35
2024-04-30T17:18:09.535Z,3.50
2024-04-30T17:20:35.890Z,3.30
2024-04-30T17:23:02.136Z,2.80
2024-04-30T17:25:28.386Z,3.25
2024-04-30T17:27:54.773Z,4.12
2024-04-30T17:30:21.091Z,6.37
2024-04-30T17:32:47.457Z,7.97
2024-04-30T17:35:13.870Z,6.87
2024-04-30T17:37:40.141Z,6.93
2024-04-30T17:40:07.967Z,6.60
2024-04-30T17:42:34.442Z,5.75
2024-04-30T17:45:02.219Z,4.50
2024-04-30T17:47:28.500Z,3.75
2024-04-30T17:49:55.685Z,3.30
2024-04-30T17:52:21.917Z,2.85
2024-04-30T17:54:48.285Z,2.60
2024-04-30T17:57:14.752Z,2.58
2024-04-30T17:59:41.074Z,2.60
2024-04-30T18:02:07.418Z,2.60
2024-04-30T18:04:33.966Z,3.50
2024-04-30T18:07:00.832Z,3.55
2024-04-30T18:09:27.559Z,3.30
2024-04-30T18:11:53.924Z,3.30
2024-04-30T18:14:20.199Z,3.25
2024-04-30T18:16:46.648Z,2.90
2024-04-30T18:19:13.248Z,2.97
2024-04-30T18:21:43.256Z,3.60
2024-04-30T18:24:09.698Z,3.20
2024-04-30T18:26:40.135Z,3.28
2024-04-30T18:29:06.460Z,3.47
2024-04-30T18:31:33.412Z,3.40
2024-04-30T18:33:59.894Z,2.72
2024-04-30T18:36:26.660Z,2.40
2024-04-30T18:38:53.668Z,2.40
2024-04-30T18:41:25.208Z,2.47
2024-04-30T18:43:56.714Z,4.62
2024-04-30T18:46:23.064Z,3.08
2024-04-30T18:48:49.753Z,2.60
2024-04-30T18:51:17.042Z,2.70
2024-04-30T18:53:43.387Z,2.40
2024-04-30T18:56:12.739Z,2.62
2024-04-30T18:58:39.025Z,2.70
2024-04-30T19:01:05.659Z,2.72
2024-04-30T19:03:33.058Z,3.28
2024-04-30T19:05:59.371Z,4.25
2024-04-30T19:08:25.864Z,5.80
2024-04-30T19:10:52.952Z,7.85
2024-04-30T19:13:19.385Z,9.27
2024-04-30T19:15:47.074Z,8.00
2024-04-30T19:18:13.616Z,7.25
2024-04-30T19:20:40.177Z,5.87
2024-04-30T19:23:06.807Z,4.32
2024-04-30T19:25:33.358Z,3.60
2024-04-30T19:28:00.644Z,3.10
2024-04-30T19:30:27.252Z,2.80
2024-04-30T19:32:54.069Z,2.58
2024-04-30T19:35:20.758Z,2.75
2024-04-30T19:37:47.451Z,2.92
2024-04-30T19:40:13.829Z,2.97
2024-04-30T19:42:40.114Z,2.95
2024-04-30T19:45:07.894Z,3.00
2024-04-30T19:47:34.499Z,2.95
2024-04-30T19:50:01.369Z,2.80
2024-04-30T19:52:28.242Z,2.70
2024-04-30T19:54:55.081Z,2.70
2024-04-30T19:57:26.209Z,2.80
2024-04-30T19:59:52.589Z,2.60
2024-04-30T20:02:19.179Z,2.60
2024-04-30T20:04:45.645Z,2.70
2024-04-30T20:07:13.047Z,2.72
2024-04-30T20:09:41.161Z,2.67
2024-04-30T20:12:07.890Z,2.80
2024-04-30T20:14:34.476Z,3.00
2024-04-30T20:17:01.060Z,3.10
2024-04-30T20:19:27.582Z,3.10
2024-04-30T20:21:53.942Z,2.83
2024-04-30T20:24:21.970Z,3.28
2024-04-30T20:26:48.938Z,3.58
2024-04-30T20:29:16.057Z,3.00
2024-04-30T20:31:43.175Z,2.92
2024-04-30T20:34:09.973Z,3.20
2024-04-30T20:36:36.972Z,3.10
2024-04-30T20:39:04.174Z,2.90
2024-04-30T20:41:30.532Z,9.85
2024-04-30T20:43:57.040Z,32.35
2024-04-30T20:46:23.521Z,2.92
2024-04-30T20:48:50.620Z,3.05
2024-04-30T20:51:17.152Z,2.80
2024-04-30T20:53:44.266Z,3.03
2024-04-30T20:56:10.694Z,2.97
2024-04-30T20:58:39.032Z,2.97
2024-04-30T21:01:05.361Z,3.25
2024-04-30T21:03:32.074Z,3.22
2024-04-30T21:05:59.694Z,2.90
2024-04-30T21:08:26.015Z,2.95
2024-04-30T21:10:52.595Z,3.30
2024-04-30T21:13:18.994Z,3.55
2024-04-30T21:15:45.895Z,3.00
2024-04-30T21:18:12.292Z,2.95
2024-04-30T21:20:38.750Z,2.62
2024-04-30T21:23:05.757Z,2.75
2024-04-30T21:25:32.597Z,2.80
2024-04-30T21:27:59.071Z,3.10
2024-04-30T21:30:25.472Z,3.00
2024-04-30T21:32:51.870Z,3.00
2024-04-30T21:35:18.764Z,2.75
2024-04-30T21:37:45.170Z,2.80
2024-04-30T21:40:11.582Z,2.90
2024-04-30T21:42:38.147Z,2.62
2024-04-30T21:45:05.069Z,2.55
2024-04-30T21:47:31.464Z,2.58
2024-04-30T21:49:57.935Z,2.70
2024-04-30T21:52:24.214Z,2.78
2024-04-30T21:54:50.646Z,2.80
2024-04-30T21:57:17.016Z,2.55
2024-04-30T21:59:43.298Z,2.60
2024-04-30T22:02:09.785Z,2.45
2024-04-30T22:04:37.420Z,2.40
2024-04-30T22:07:04.451Z,2.33
2024-04-30T22:09:30.869Z,2.28
2024-04-30T22:11:57.198Z,2.45
2024-04-30T22:14:23.476Z,2.55
2024-04-30T22:16:49.808Z,2.60
2024-04-30T22:19:16.373Z,2.40
2024-04-30T22:21:46.567Z,2.40
2024-04-30T22:24:12.994Z,2.47
2024-04-30T22:26:39.352Z,2.40
2024-04-30T22:29:05.652Z,2.35
2024-04-30T22:31:35.359Z,2.40
2024-04-30T22:34:02.088Z,2.30
2024-04-30T22:36:28.580Z,2.30
2024-04-30T22:38:54.975Z,2.40
2024-04-30T22:41:21.410Z,2.30
2024-04-30T22:43:48.704Z,2.40
2024-04-30T22:46:15.292Z,2.17
2024-04-30T22:48:42.240Z,2.30
2024-04-30T22:51:08.605Z,2.15
2024-04-30T22:56:04.824Z,2.33
2024-04-30T22:58:31.184Z,2.42
2024-04-30T23:00:57.796Z,2.40
2024-04-30T23:03:24.251Z,2.30
2024-04-30T23:05:50.634Z,2.30
2024-04-30T23:08:17.009Z,2.35
2024-04-30T23:10:43.608Z,2.60
2024-04-30T23:13:10.115Z,2.55
2024-04-30T23:15:36.390Z,2.53
2024-04-30T23:18:02.933Z,2.78
2024-04-30T23:20:29.641Z,2.53
2024-04-30T23:22:55.971Z,2.58
2024-04-30T23:25:22.300Z,2.55
2024-04-30T23:27:48.609Z,2.75
2024-04-30T23:30:15.170Z,2.85
2024-04-30T23:32:41.641Z,2.80
2024-04-30T23:35:08.040Z,2.78
2024-04-30T23:37:34.460Z,2.80
2024-04-30T23:40:00.976Z,2.75
2024-04-30T23:42:27.688Z,2.70
2024-04-30T23:44:54.808Z,2.62
2024-04-30T23:47:21.211Z,2.50
2024-04-30T23:49:47.495Z,2.53
2024-04-30T23:52:13.884Z,2.33
2024-04-30T23:54:40.237Z,2.25
2024-04-30T23:57:06.541Z,2.40
2024-04-30T23:59:32.822Z,2.33
